createdAt,value
2019-04-25T00:01:46.612Z,13.40
2019-04-25T00:06:50.145Z,5.17
2019-04-25T00:11:52.717Z,7.30
2019-04-25T00:16:54.829Z,6.20
2019-04-25T00:22:02.741Z,6.97
2019-04-25T00:27:07.794Z,12.57
2019-04-25T00:32:11.615Z,9.07
2019-04-25T00:37:14.021Z,7.00
2019-04-25T00:42:16.122Z,7.93
2019-04-25T00:47:18.059Z,6.83
2019-04-25T00:52:21.093Z,8.07
2019-04-25T00:57:25.174Z,11.40
2019-04-25T01:02:34.396Z,7.90
2019-04-25T01:07:36.300Z,8.77
2019-04-25T01:12:38.189Z,8.07
2019-04-25T01:17:41.323Z,8.87
2019-04-25T01:22:44.098Z,11.53
2019-04-25T01:27:46.605Z,10.77
2019-04-25T01:32:48.904Z,8.63
2019-04-25T01:37:59.383Z,12.47
2019-04-25T01:43:09.559Z,13.83
2019-04-25T01:48:13.629Z,9.93
2019-04-25T01:53:15.978Z,10.93
2019-04-25T01:58:17.950Z,12.53
2019-04-25T02:03:21.394Z,17.93
2019-04-25T02:08:23.913Z,12.07
2019-04-25T02:13:26.301Z,16.23
2019-04-25T02:18:28.266Z,15.50
2019-04-25T02:23:32.007Z,11.57
2019-04-25T02:28:33.971Z,11.73
2019-04-25T02:33:35.782Z,14.07
2019-04-25T02:38:39.264Z,13.07
2019-04-25T02:43:41.292Z,11.03
2019-04-25T02:49:03.033Z,11.57
2019-04-25T02:54:08.238Z,14.60
2019-04-25T02:59:10.375Z,12.37
2019-04-25T03:04:14.402Z,12.17
2019-04-25T03:09:16.325Z,15.30
2019-04-25T03:14:18.392Z,10.93
2019-04-25T03:19:44.018Z,11.40
2019-04-25T03:24:46.099Z,11.90
2019-04-25T03:29:48.323Z,15.77
2019-04-25T03:34:50.586Z,13.40
2019-04-25T03:39:53.525Z,12.67
2019-04-25T03:44:55.544Z,23.23
2019-04-25T03:49:57.497Z,16.60
2019-04-25T03:54:59.456Z,9.50
2019-04-25T04:00:03.598Z,12.20
2019-04-25T04:05:09.617Z,14.30
2019-04-25T04:10:12.600Z,12.93
2019-04-25T04:15:16.476Z,11.87
2019-04-25T04:20:33.824Z,17.87
2019-04-25T04:25:37.643Z,9.47
2019-04-25T04:30:39.490Z,10.83
2019-04-25T04:35:41.711Z,11.07
2019-04-25T04:40:44.205Z,14.40
2019-04-25T04:45:46.624Z,8.50
2019-04-25T04:50:48.429Z,11.10
2019-04-25T04:55:50.486Z,9.37
2019-04-25T05:00:53.691Z,12.97
2019-04-25T05:06:06.483Z,8.20
2019-04-25T05:11:12.289Z,7.43
2019-04-25T05:16:17.833Z,12.80
2019-04-25T05:21:20.382Z,13.57
2019-04-25T05:26:24.880Z,12.30
2019-04-25T05:31:37.179Z,7.40
2019-04-25T05:36:39.291Z,12.93
2019-04-25T05:41:57.224Z,9.60
2019-04-25T05:46:59.259Z,13.10
2019-04-25T05:52:01.062Z,10.43
2019-04-25T05:57:03.693Z,10.27
2019-04-25T06:02:05.836Z,13.17
2019-04-25T06:07:08.176Z,10.73
2019-04-25T06:12:26.323Z,9.40
2019-04-25T06:17:48.216Z,12.60
2019-04-25T06:23:04.080Z,12.07
2019-04-25T06:28:09.258Z,13.60
2019-04-25T06:33:11.278Z,9.73
2019-04-25T06:38:16.845Z,7.03
2019-04-25T06:43:18.703Z,10.50
2019-04-25T06:48:45.586Z,15.60
2019-04-25T06:53:47.974Z,9.67
2019-04-25T06:58:53.250Z,7.63
2019-04-25T07:03:56.621Z,10.80
2019-04-25T07:08:58.700Z,13.27
2019-04-25T07:14:04.159Z,12.80
2019-04-25T07:19:06.452Z,15.13
2019-04-25T07:24:09.604Z,8.97
2019-04-25T07:29:24.783Z,9.43
2019-04-25T07:34:28.878Z,11.13
2019-04-25T07:39:31.920Z,7.63
2019-04-25T07:44:48.871Z,14.00
2019-04-25T07:49:39.371Z,13.97
2019-04-25T07:54:44.077Z,13.27
2019-04-25T07:59:47.454Z,10.33
2019-04-25T08:04:54.162Z,12.60
2019-04-25T08:09:56.643Z,11.20
2019-04-25T08:15:10.207Z,11.40
2019-04-25T08:20:15.209Z,18.77
2019-04-25T08:25:18.001Z,11.77
2019-04-25T08:30:20.225Z,8.37
2019-04-25T08:35:23.986Z,12.37
2019-04-25T08:40:28.902Z,14.80
2019-04-25T08:45:33.567Z,8.00
2019-04-25T08:51:01.263Z,8.90
2019-04-25T08:56:13.363Z,7.50
2019-04-25T09:01:25.557Z,6.73
2019-04-25T09:06:27.542Z,18.57
2019-04-25T09:11:32.235Z,8.87
2019-04-25T09:16:35.418Z,12.33
2019-04-25T09:21:37.849Z,8.57
2019-04-25T09:26:40.104Z,9.93
2019-04-25T09:31:46.023Z,7.83
2019-04-25T09:36:48.152Z,6.63
2019-04-25T09:41:50.306Z,10.53
2019-04-25T09:47:01.295Z,7.33
2019-04-25T09:52:15.629Z,10.10
2019-04-25T09:57:46.270Z,4.60
2019-04-25T10:02:55.456Z,7.50
2019-04-25T10:07:57.593Z,9.20
2019-04-25T10:12:59.627Z,7.20
2019-04-25T10:18:01.914Z,8.67
2019-04-25T10:23:05.036Z,7.60
2019-04-25T10:28:07.755Z,6.47
2019-04-25T10:33:09.827Z,8.07
2019-04-25T10:38:15.294Z,6.73
2019-04-25T10:43:17.295Z,6.70
2019-04-25T10:48:19.389Z,5.57
2019-04-25T10:53:25.043Z,14.17
2019-04-25T10:58:27.274Z,5.90
2019-04-25T11:03:56.923Z,17.10
2019-04-25T11:08:58.831Z,6.03
2019-04-25T11:14:00.900Z,6.65
2019-04-25T11:19:03.062Z,6.83
2019-04-25T11:24:05.244Z,7.73
2019-04-25T11:29:08.357Z,10.67
2019-04-25T11:34:11.520Z,7.40
2019-04-25T11:39:33.460Z,8.33
2019-04-25T11:44:35.268Z,15.57
2019-04-25T11:49:37.262Z,8.50
2019-04-25T11:54:39.425Z,10.17
2019-04-25T11:59:41.999Z,9.43
2019-04-25T12:04:46.769Z,7.73
2019-04-25T12:09:49.966Z,6.80
2019-04-25T12:14:54.015Z,8.50
2019-04-25T12:19:56.283Z,9.03
2019-04-25T12:25:00.751Z,6.23
2019-04-25T12:30:05.924Z,8.30
2019-04-25T12:35:08.098Z,11.03
2019-04-25T12:40:10.701Z,5.17
2019-04-25T12:45:20.409Z,7.90
2019-04-25T12:50:23.091Z,11.13
2019-04-25T12:55:26.591Z,6.83
2019-04-25T13:00:31.347Z,7.47
2019-04-25T13:05:36.764Z,6.30
2019-04-25T13:10:38.680Z,6.97
2019-04-25T13:15:40.641Z,4.97
2019-04-25T13:20:42.746Z,9.87
2019-04-25T13:25:44.898Z,5.07
2019-04-25T13:31:12.468Z,8.87
2019-04-25T13:36:13.943Z,8.97
2019-04-25T13:41:16.023Z,10.97
2019-04-25T13:46:20.611Z,7.57
2019-04-25T13:51:23.022Z,9.23
2019-04-25T13:56:27.425Z,11.73
2019-04-25T14:01:31.837Z,6.67
2019-04-25T14:06:41.405Z,9.13
2019-04-25T14:11:44.811Z,7.50
2019-04-25T14:17:18.769Z,14.90
2019-04-25T14:22:25.223Z,10.03
2019-04-25T14:27:30.225Z,9.00
2019-04-25T14:32:33.932Z,11.10
2019-04-25T14:37:39.604Z,10.93
2019-04-25T14:42:39.967Z,7.70
2019-04-25T14:47:42.122Z,6.60
2019-04-25T14:52:43.928Z,7.30
2019-04-25T14:57:45.961Z,4.10
2019-04-25T15:02:48.076Z,5.70
2019-04-25T15:07:50.268Z,5.90
2019-04-25T15:12:52.513Z,5.33
2019-04-25T15:17:57.034Z,4.87
2019-04-25T15:22:59.291Z,8.60
2019-04-25T15:28:03.248Z,6.27
2019-04-25T15:33:06.818Z,4.80
2019-04-25T15:38:13.114Z,5.30
2019-04-25T15:43:33.674Z,7.93
2019-04-25T15:48:36.111Z,5.97
2019-04-25T15:53:38.141Z,5.47
2019-04-25T15:58:41.696Z,4.80
2019-04-25T16:03:44.637Z,4.17
2019-04-25T16:08:47.360Z,5.43
2019-04-25T16:13:49.262Z,4.57
2019-04-25T16:18:51.357Z,3.03
2019-04-25T16:23:54.966Z,2.97
2019-04-25T16:28:56.890Z,4.47
2019-04-25T16:33:58.797Z,4.27
2019-04-25T16:39:03.561Z,10.13
2019-04-25T16:44:13.296Z,4.03
2019-04-25T16:49:15.254Z,6.33
2019-04-25T16:54:17.327Z,4.90
2019-04-25T16:59:20.538Z,2.87
2019-04-25T17:04:24.325Z,2.83
2019-04-25T17:09:26.246Z,3.90
2019-04-25T17:14:46.590Z,3.83
2019-04-25T17:20:17.073Z,6.77
2019-04-25T17:25:21.140Z,2.90
2019-04-25T17:30:23.286Z,2.23
2019-04-25T17:35:53.823Z,3.00
2019-04-25T17:40:56.039Z,2.70
2019-04-25T17:45:58.776Z,6.20
2019-04-25T17:51:03.041Z,3.03
2019-04-25T17:56:05.248Z,4.53
2019-04-25T18:01:09.228Z,3.63
2019-04-25T18:06:11.328Z,4.03
2019-04-25T18:11:13.264Z,3.17
2019-04-25T18:16:25.099Z,2.40
2019-04-25T18:21:27.108Z,3.37
2019-04-25T18:26:48.593Z,3.90
2019-04-25T18:31:50.639Z,3.13
2019-04-25T18:37:12.322Z,4.97
2019-04-25T18:42:31.103Z,4.43
2019-04-25T18:47:33.217Z,3.80
2019-04-25T18:52:53.738Z,3.87
2019-04-25T18:58:18.111Z,7.07
2019-04-25T19:03:43.636Z,4.97
2019-04-25T19:08:47.088Z,4.50
2019-04-25T19:13:51.694Z,5.10
2019-04-25T19:19:01.560Z,5.70
2019-04-25T19:24:05.554Z,5.80
2019-04-25T19:29:09.220Z,6.83
2019-04-25T19:34:12.450Z,6.97
2019-04-25T19:39:16.377Z,6.13
2019-04-25T19:44:21.893Z,9.43
2019-04-25T19:49:23.827Z,6.33
2019-04-25T19:54:25.813Z,5.13
2019-04-25T19:59:27.713Z,8.80
2019-04-25T20:04:53.742Z,2.67
2019-04-25T20:10:28.004Z,3.17
2019-04-25T20:15:30.246Z,2.23
2019-04-25T20:20:32.128Z,4.10
2019-04-25T20:25:34.154Z,1.70
2019-04-25T20:30:36.307Z,2.23
2019-04-25T20:35:38.281Z,3.70
2019-04-25T20:40:40.237Z,2.33
2019-04-25T20:45:42.294Z,2.43
2019-04-25T20:50:44.224Z,2.13
2019-04-25T20:55:46.490Z,2.43
2019-04-25T21:00:52.311Z,2.90
2019-04-25T21:05:57.229Z,2.67
2019-04-25T21:11:00.640Z,2.60
2019-04-25T21:16:21.198Z,3.83
2019-04-25T21:21:22.919Z,2.87
2019-04-25T21:26:25.326Z,2.10
2019-04-25T21:31:27.358Z,3.17
2019-04-25T21:36:29.388Z,2.83
2019-04-25T21:42:00.096Z,2.83
2019-04-25T21:47:06.855Z,6.43
2019-04-25T21:52:09.254Z,4.73
2019-04-25T21:57:15.186Z,6.03
2019-04-25T22:02:18.576Z,5.53
2019-04-25T22:07:23.723Z,6.13
2019-04-25T22:12:26.035Z,4.50
2019-04-25T22:17:30.882Z,6.53
2019-04-25T22:22:33.463Z,4.30
2019-04-25T22:27:36.939Z,3.47
2019-04-25T22:32:54.662Z,6.23
2019-04-25T22:37:57.613Z,3.27
2019-04-25T22:43:00.449Z,4.27
2019-04-25T22:48:02.844Z,5.80
2019-04-25T22:53:05.012Z,3.23
2019-04-25T22:58:08.389Z,3.17
2019-04-25T23:03:27.509Z,3.67
2019-04-25T23:08:29.518Z,3.57
2019-04-25T23:13:31.748Z,5.20
2019-04-25T23:18:36.153Z,2.90
2019-04-25T23:23:38.017Z,4.87
2019-04-25T23:28:41.379Z,4.80
2019-04-25T23:33:43.532Z,5.80
2019-04-25T23:38:46.190Z,3.53
2019-04-25T23:43:48.698Z,4.57
2019-04-25T23:48:50.695Z,6.43
2019-04-25T23:53:52.603Z,5.80
2019-04-25T23:58:54.519Z,4.97
